Etusivu
METAR-TAF:

METAR-TAF

Lentoasemat :

Caracas, Venezuela

Leveyspiiri: 10-36N, Pituuspiiri: 066-59W, korkeus merenpinnasta: 43 m

Tämänhetkinen sää

Tämä raportti tehtiin 1 tunti ja 2 minuuttia sitten, kello 08.00 UTC
Lämpötila 27°C
Kosteus 74%
Ilmanpaine 1013 hPa
Näkyvyys 10 km tai enemmän
Muutamia pilviä 1600 ft:n korkeudessa

METAR: SVMI 300800Z 0000KT 9999 FEW016 27/22 Q1013

Aika: 05:02 (09:02 UTC)

Sääennuste

Tämä raportti tehtiin 5 tuntia ja 2 minuuttia sitten, kello 04.00 UTC
Ennuste voimassa 30. päivästä klo 06 UTC - 31. päivään klo 06 UTC
Tuuli 10 kn idästä
Näkyvyys 10 km tai enemmän
Hajanaisia pilviä 1600 ft:n korkeudessa
Tulossa
30. päivästä klo 06 UTC - 30. päivään klo 10 UTC
Tuuli kn pohjoisesta
Muutamia pilviä 1600 ft:n korkeudessa

TAF: SVMI 300400Z 3006/3106 09010KT 9999 SCT016 TX34/18Z TN24/08Z BECMG 3006/3010 00000KT FEW016

Säähavainnot ja -ennusteet yli 4000 lentoasemalta (METAR- ja TAF-raportit).

Käytössä olevat sääasemat on merkitty karttaan keltaisilla ja punaisilla pisteillä.

Aseta hiiri pisteen päälle nähdäksesi sääaseman nimen.

Klikkaa sitten nähdäksesi säähavainnot ja -ennusteet.

Kartan vaihtaminen: klikkaa mustalla rastilla varustettuja vihreitä pisteitä, niin voit zoomata sisään; viivalla varustettua vihreää pistettä, niin voit zoomata ulos tai vihreitä nuolia, niin pääset viereisille kartoille.


METAR-TAF: